createdAt,value
2018-12-26T00:00:50.118Z,0.00
2018-12-26T00:01:50.787Z,0.00
2018-12-26T00:02:50.126Z,0.00
2018-12-26T00:03:50.131Z,0.00
2018-12-26T00:04:50.070Z,0.00
2018-12-26T00:05:50.113Z,0.00
2018-12-26T00:06:50.074Z,0.00
2018-12-26T00:07:50.037Z,0.00
2018-12-26T00:08:50.028Z,0.00
2018-12-26T00:09:50.056Z,0.00
2018-12-26T00:10:50.019Z,0.00
2018-12-26T00:11:50.043Z,0.00
2018-12-26T00:12:49.981Z,0.00
2018-12-26T00:13:49.970Z,0.00
2018-12-26T00:14:49.959Z,0.00
2018-12-26T00:15:50.002Z,0.00
2018-12-26T00:16:49.966Z,0.00
2018-12-26T00:17:49.928Z,0.00
2018-12-26T00:18:49.919Z,0.00
2018-12-26T00:19:49.958Z,0.00
2018-12-26T00:20:49.900Z,0.00
2018-12-26T00:21:49.948Z,0.00
2018-12-26T00:22:49.897Z,0.00
2018-12-26T00:23:49.877Z,0.00
2018-12-26T00:24:49.871Z,0.00
2018-12-26T00:25:49.842Z,0.00
2018-12-26T00:26:49.828Z,0.00
2018-12-26T00:27:49.852Z,0.00
2018-12-26T00:28:49.812Z,0.00
2018-12-26T00:29:49.843Z,0.00
2018-12-26T00:30:49.790Z,0.00
2018-12-26T00:31:49.787Z,0.00
2018-12-26T00:32:49.774Z,0.00
2018-12-26T00:33:49.789Z,0.00
2018-12-26T00:34:49.759Z,0.00
2018-12-26T00:35:49.738Z,0.00
2018-12-26T00:36:49.727Z,0.00
2018-12-26T00:37:49.729Z,0.00
2018-12-26T00:38:49.724Z,0.00
2018-12-26T00:39:49.739Z,0.00
2018-12-26T00:40:49.710Z,0.00
2018-12-26T00:41:49.670Z,0.00
2018-12-26T00:42:49.701Z,0.00
2018-12-26T00:43:49.665Z,0.00
2018-12-26T00:44:49.634Z,0.00
2018-12-26T00:45:49.677Z,0.00
2018-12-26T00:46:49.622Z,0.00
2018-12-26T00:47:49.652Z,0.00
2018-12-26T00:48:49.605Z,0.00
2018-12-26T00:49:49.589Z,0.00
2018-12-26T00:50:49.589Z,0.00
2018-12-26T00:51:49.603Z,0.00
2018-12-26T00:52:49.578Z,0.00
2018-12-26T00:53:49.555Z,0.00
2018-12-26T00:54:49.529Z,0.00
2018-12-26T00:55:49.521Z,0.00
2018-12-26T00:56:49.521Z,0.00
2018-12-26T00:57:49.557Z,0.00
2018-12-26T00:58:49.490Z,0.00
2018-12-26T00:59:49.484Z,0.00
2018-12-26T01:00:49.466Z,0.00
2018-12-26T01:01:49.474Z,0.00
2018-12-26T01:02:49.442Z,0.00
2018-12-26T01:03:49.561Z,0.00
2018-12-26T01:04:49.442Z,0.00
2018-12-26T01:05:49.447Z,0.00
2018-12-26T01:06:49.404Z,0.00
2018-12-26T01:07:49.393Z,0.00
2018-12-26T01:08:49.387Z,0.00
2018-12-26T01:09:49.420Z,0.00
2018-12-26T01:10:49.366Z,0.00
2018-12-26T01:11:49.359Z,0.00
2018-12-26T01:12:49.342Z,0.00
2018-12-26T01:13:49.348Z,0.00
2018-12-26T01:14:49.343Z,0.00
2018-12-26T01:15:49.354Z,0.00
2018-12-26T01:16:49.292Z,0.00
2018-12-26T01:17:49.284Z,0.00
2018-12-26T01:18:49.295Z,0.00
2018-12-26T01:19:49.263Z,0.00
2018-12-26T01:20:49.276Z,0.00
2018-12-26T01:21:49.294Z,0.00
2018-12-26T01:22:49.233Z,0.00
2018-12-26T01:23:49.220Z,0.00
2018-12-26T01:24:49.206Z,0.00
2018-12-26T01:25:49.216Z,0.00
2018-12-26T01:26:49.194Z,0.00
2018-12-26T01:27:49.208Z,0.00
2018-12-26T01:28:49.240Z,0.00
2018-12-26T01:29:49.159Z,0.00
2018-12-26T01:30:49.149Z,0.00
2018-12-26T01:31:49.131Z,0.00
2018-12-26T01:32:49.141Z,0.00
2018-12-26T01:33:49.185Z,0.00
2018-12-26T01:34:49.109Z,0.00
2018-12-26T01:35:49.098Z,0.00
2018-12-26T01:36:49.091Z,0.00
2018-12-26T01:37:49.085Z,0.00
2018-12-26T01:38:49.081Z,0.00
2018-12-26T01:39:49.084Z,0.00
2018-12-26T01:40:49.043Z,0.00
2018-12-26T01:41:49.053Z,0.00
2018-12-26T01:42:49.028Z,0.00
2018-12-26T01:43:49.042Z,0.00
2018-12-26T01:44:48.996Z,0.00
2018-12-26T01:45:49.021Z,0.00
2018-12-26T01:46:49.015Z,0.00
2018-12-26T01:47:48.969Z,0.00
2018-12-26T01:48:48.969Z,0.00
2018-12-26T01:49:48.944Z,0.00
2018-12-26T01:50:48.952Z,0.00
2018-12-26T01:51:48.950Z,0.00
2018-12-26T01:52:48.911Z,0.00
2018-12-26T01:53:48.920Z,0.00
2018-12-26T01:54:48.892Z,0.00
2018-12-26T01:55:48.877Z,0.00
2018-12-26T01:56:48.874Z,0.00
2018-12-26T01:57:48.902Z,0.00
2018-12-26T01:58:48.860Z,0.00
2018-12-26T01:59:48.838Z,0.00
2018-12-26T02:00:48.831Z,0.00
2018-12-26T02:01:48.815Z,0.00
2018-12-26T02:02:48.813Z,0.00
2018-12-26T02:03:48.821Z,0.00
2018-12-26T02:04:48.785Z,0.00
2018-12-26T02:05:48.772Z,0.00
2018-12-26T02:06:48.779Z,0.00
2018-12-26T02:07:48.754Z,0.00
2018-12-26T02:08:48.757Z,0.00
2018-12-26T02:09:48.768Z,0.00
2018-12-26T02:10:48.724Z,0.00
2018-12-26T02:11:48.722Z,0.00
2018-12-26T02:12:48.700Z,0.00
2018-12-26T02:13:48.709Z,0.00
2018-12-26T02:14:48.684Z,0.00
2018-12-26T02:15:48.699Z,0.00
2018-12-26T02:16:48.668Z,0.00
2018-12-26T02:17:48.653Z,0.00
2018-12-26T02:18:48.654Z,0.00
2018-12-26T02:19:48.622Z,0.00
2018-12-26T02:20:48.628Z,0.00
2018-12-26T02:21:48.641Z,0.00
2018-12-26T02:22:48.609Z,0.00
2018-12-26T02:23:48.610Z,0.00
2018-12-26T02:24:48.573Z,0.00
2018-12-26T02:25:48.574Z,0.00
2018-12-26T02:26:48.552Z,0.00
2018-12-26T02:27:48.585Z,0.00
2018-12-26T02:28:48.588Z,0.00
2018-12-26T02:29:48.518Z,0.00
2018-12-26T02:30:48.518Z,0.00
2018-12-26T02:31:48.503Z,0.00
2018-12-26T02:32:48.505Z,0.00
2018-12-26T02:33:48.507Z,0.00
2018-12-26T02:34:48.487Z,0.00
2018-12-26T02:35:48.458Z,0.00
2018-12-26T02:36:48.453Z,0.00
2018-12-26T02:37:48.449Z,0.00
2018-12-26T02:38:48.432Z,0.00
2018-12-26T02:39:48.453Z,0.00
2018-12-26T02:40:48.416Z,0.00
2018-12-26T02:41:48.416Z,0.00
2018-12-26T02:42:48.383Z,0.00
2018-12-26T02:43:48.377Z,0.00
2018-12-26T02:44:48.379Z,0.00
2018-12-26T02:45:48.375Z,0.00
2018-12-26T02:46:48.342Z,0.00
2018-12-26T02:47:48.328Z,0.00
2018-12-26T02:48:48.345Z,0.00
2018-12-26T02:49:48.317Z,0.00
2018-12-26T02:50:48.298Z,0.00
2018-12-26T02:51:48.318Z,0.00
2018-12-26T02:52:48.272Z,0.00
2018-12-26T02:53:48.288Z,0.00
2018-12-26T02:54:48.272Z,0.00
2018-12-26T02:55:48.244Z,0.00
2018-12-26T02:56:49.162Z,0.00
2018-12-26T02:57:48.263Z,0.00
2018-12-26T02:58:48.213Z,0.00
2018-12-26T02:59:48.221Z,0.00
2018-12-26T03:00:48.186Z,0.00
2018-12-26T03:01:48.187Z,0.00
2018-12-26T03:02:48.181Z,0.00
2018-12-26T03:03:48.201Z,0.00
2018-12-26T03:04:48.152Z,0.00
2018-12-26T03:05:48.134Z,0.00
2018-12-26T03:06:48.131Z,0.00
2018-12-26T03:07:48.117Z,0.00
2018-12-26T03:08:48.121Z,0.00
2018-12-26T03:09:48.244Z,0.00
2018-12-26T03:10:48.089Z,0.00
2018-12-26T03:11:48.071Z,0.00
2018-12-26T03:12:48.090Z,0.00
2018-12-26T03:13:48.062Z,0.00
2018-12-26T03:14:48.040Z,0.00
2018-12-26T03:15:48.089Z,0.00
2018-12-26T03:16:48.023Z,0.00
2018-12-26T03:17:48.040Z,0.00
2018-12-26T03:18:48.015Z,0.00
2018-12-26T03:19:47.987Z,0.00
2018-12-26T03:20:47.976Z,0.00
2018-12-26T03:21:47.999Z,0.00
2018-12-26T03:22:47.956Z,0.00
2018-12-26T03:23:47.960Z,0.00
2018-12-26T03:24:47.958Z,0.00
2018-12-26T03:25:47.921Z,0.00
2018-12-26T03:26:55.977Z,0.00
2018-12-26T03:27:48.934Z,0.00
2018-12-26T03:28:47.909Z,0.00
2018-12-26T03:29:47.881Z,0.00
2018-12-26T03:30:47.873Z,0.00
2018-12-26T03:31:47.912Z,0.00
2018-12-26T03:32:47.850Z,0.00
2018-12-26T03:33:47.883Z,0.00
2018-12-26T03:34:47.837Z,0.00
2018-12-26T03:35:47.819Z,0.00
2018-12-26T03:36:47.810Z,0.00
2018-12-26T03:37:47.801Z,0.00
2018-12-26T03:38:47.799Z,0.00
2018-12-26T03:39:47.818Z,0.00
2018-12-26T03:40:47.765Z,0.00
2018-12-26T03:41:47.754Z,0.00
2018-12-26T03:42:47.744Z,0.00
2018-12-26T03:43:47.743Z,0.00
2018-12-26T03:44:47.715Z,0.00
2018-12-26T03:45:47.761Z,0.00
2018-12-26T03:46:47.697Z,0.00
2018-12-26T03:47:47.701Z,0.00
2018-12-26T03:48:47.684Z,0.00
2018-12-26T03:49:47.688Z,0.00
2018-12-26T03:50:47.653Z,0.00
2018-12-26T03:51:47.713Z,0.00
2018-12-26T03:52:47.632Z,0.00
2018-12-26T03:53:47.625Z,0.00
2018-12-26T03:54:47.620Z,0.00
2018-12-26T03:55:47.605Z,0.00
2018-12-26T03:56:47.591Z,0.00
2018-12-26T03:57:47.684Z,0.00
2018-12-26T03:58:47.570Z,0.00
2018-12-26T03:59:47.572Z,0.00
2018-12-26T04:00:47.558Z,0.00
2018-12-26T04:01:47.551Z,0.00
2018-12-26T04:02:47.529Z,0.00
2018-12-26T04:03:47.562Z,0.00
2018-12-26T04:04:47.530Z,0.00
2018-12-26T04:05:47.520Z,0.00
2018-12-26T04:06:47.488Z,0.00
2018-12-26T04:07:47.488Z,0.00
2018-12-26T04:08:47.487Z,0.00
2018-12-26T04:09:47.484Z,0.00
2018-12-26T04:10:47.457Z,0.00
2018-12-26T04:11:47.435Z,0.00
2018-12-26T04:12:47.439Z,0.00
2018-12-26T04:13:47.411Z,0.00
2018-12-26T04:14:47.423Z,0.00
2018-12-26T04:15:47.435Z,0.00
2018-12-26T04:16:47.380Z,0.00
2018-12-26T04:17:47.375Z,0.00
2018-12-26T04:18:47.359Z,0.00
2018-12-26T04:19:47.347Z,0.00
2018-12-26T04:20:47.397Z,0.00
2018-12-26T04:21:47.354Z,0.00
2018-12-26T04:22:47.317Z,0.00
2018-12-26T04:23:47.306Z,0.00
2018-12-26T04:24:47.299Z,0.00
2018-12-26T04:25:47.398Z,0.00
2018-12-26T04:26:47.277Z,0.00
2018-12-26T04:27:47.324Z,0.00
2018-12-26T04:28:47.253Z,0.00
2018-12-26T04:29:47.242Z,0.00
2018-12-26T04:30:47.244Z,0.00
2018-12-26T04:31:47.217Z,0.00
2018-12-26T04:32:47.214Z,0.00
2018-12-26T04:33:47.325Z,0.00
2018-12-26T04:34:47.220Z,0.00
2018-12-26T04:35:47.181Z,0.00
2018-12-26T04:36:47.165Z,0.00
2018-12-26T04:37:47.157Z,0.00
2018-12-26T04:38:47.149Z,0.00
2018-12-26T04:39:47.166Z,0.00
2018-12-26T04:40:47.156Z,0.00
2018-12-26T04:41:47.117Z,0.00
2018-12-26T04:42:47.105Z,0.00
2018-12-26T04:43:47.090Z,0.00
2018-12-26T04:44:47.101Z,0.00
2018-12-26T04:45:47.115Z,0.00
2018-12-26T04:46:47.055Z,0.00
2018-12-26T04:47:47.050Z,0.00
2018-12-26T04:48:47.040Z,0.00
2018-12-26T04:49:47.031Z,0.00
2018-12-26T04:50:47.038Z,0.00
2018-12-26T04:51:47.043Z,0.00
2018-12-26T04:52:47.011Z,0.00
2018-12-26T04:53:47.002Z,0.00
2018-12-26T04:54:46.993Z,0.00
2018-12-26T04:55:46.974Z,0.00
2018-12-26T04:56:46.959Z,0.00
2018-12-26T04:57:46.986Z,0.00
2018-12-26T04:58:46.929Z,0.00
2018-12-26T04:59:46.938Z,0.00
2018-12-26T05:00:46.933Z,0.00
2018-12-26T05:01:46.912Z,0.00
2018-12-26T05:02:46.903Z,0.00
2018-12-26T05:03:46.918Z,0.00
2018-12-26T05:04:46.878Z,0.00
2018-12-26T05:05:46.871Z,0.00
2018-12-26T05:06:46.879Z,0.00
2018-12-26T05:07:46.840Z,0.00
2018-12-26T05:08:46.850Z,0.00
2018-12-26T05:09:46.846Z,0.00
2018-12-26T05:10:46.805Z,0.00
2018-12-26T05:11:46.812Z,0.00
2018-12-26T05:12:46.798Z,0.00
2018-12-26T05:13:46.787Z,0.00
2018-12-26T05:14:46.765Z,0.00
2018-12-26T05:15:46.815Z,0.00
2018-12-26T05:16:46.755Z,0.00
2018-12-26T05:17:46.738Z,0.00
2018-12-26T05:18:46.719Z,0.00
2018-12-26T05:19:46.708Z,0.00
2018-12-26T05:20:46.698Z,0.00
2018-12-26T05:21:46.732Z,0.00
2018-12-26T05:22:46.687Z,0.00
2018-12-26T05:23:46.665Z,0.00
2018-12-26T05:24:46.661Z,0.00
2018-12-26T05:25:46.650Z,0.00
2018-12-26T05:26:46.640Z,0.00
2018-12-26T05:27:46.674Z,0.00
2018-12-26T05:28:46.612Z,0.00
2018-12-26T05:29:46.616Z,0.00
2018-12-26T05:30:46.612Z,0.00
2018-12-26T05:31:46.583Z,0.00
2018-12-26T05:32:46.578Z,0.00
2018-12-26T05:33:46.601Z,0.00
2018-12-26T05:34:46.547Z,0.00
2018-12-26T05:35:46.547Z,0.00
2018-12-26T05:36:46.554Z,0.00
2018-12-26T05:37:46.528Z,0.00
2018-12-26T05:38:46.505Z,0.00
2018-12-26T05:39:46.534Z,0.00
2018-12-26T05:40:46.488Z,0.00
2018-12-26T05:41:46.478Z,0.00
2018-12-26T05:42:46.472Z,0.00
2018-12-26T05:43:46.466Z,0.00
2018-12-26T05:44:46.439Z,0.00
2018-12-26T05:45:46.458Z,0.00
2018-12-26T05:46:46.430Z,0.00
2018-12-26T05:47:46.416Z,0.00
2018-12-26T05:48:46.409Z,0.00
2018-12-26T05:49:46.386Z,0.00
2018-12-26T05:50:46.375Z,0.00
2018-12-26T05:51:46.407Z,0.00
2018-12-26T05:52:46.369Z,0.00
2018-12-26T05:53:46.362Z,0.00
2018-12-26T05:54:46.360Z,0.00
2018-12-26T05:55:46.324Z,0.00
2018-12-26T05:56:46.313Z,0.00
2018-12-26T05:57:46.352Z,0.00
2018-12-26T05:58:46.295Z,0.00
2018-12-26T05:59:46.297Z,0.00
2018-12-26T06:00:46.271Z,0.00
2018-12-26T06:01:46.261Z,0.00
2018-12-26T06:02:46.260Z,0.00
2018-12-26T06:03:46.270Z,0.00
2018-12-26T06:04:46.252Z,0.00
2018-12-26T06:05:46.223Z,0.00
2018-12-26T06:06:46.208Z,0.00
2018-12-26T06:07:46.201Z,0.00
2018-12-26T06:08:46.196Z,0.00
2018-12-26T06:09:46.230Z,0.00
2018-12-26T06:10:46.171Z,0.00
2018-12-26T06:11:46.169Z,0.00
2018-12-26T06:12:46.145Z,0.00
2018-12-26T06:13:46.200Z,0.00
2018-12-26T06:14:46.127Z,0.00
2018-12-26T06:15:46.158Z,0.00
2018-12-26T06:16:46.115Z,0.00
2018-12-26T06:17:46.094Z,0.00
2018-12-26T06:18:46.080Z,0.00
2018-12-26T06:19:46.069Z,0.00
2018-12-26T06:20:46.058Z,0.00
2018-12-26T06:21:46.086Z,0.00
2018-12-26T06:22:46.060Z,0.00
2018-12-26T06:23:46.023Z,0.00
2018-12-26T06:24:46.018Z,0.00
2018-12-26T06:25:46.014Z,0.00
2018-12-26T06:26:46.004Z,0.00
2018-12-26T06:27:51.374Z,0.00
2018-12-26T06:28:46.998Z,0.00
2018-12-26T06:29:45.970Z,0.00
2018-12-26T06:30:45.955Z,0.00
2018-12-26T06:31:45.942Z,0.00
2018-12-26T06:32:45.935Z,0.00
2018-12-26T06:33:45.966Z,0.00
2018-12-26T06:34:45.921Z,0.00
2018-12-26T06:35:45.901Z,0.00
2018-12-26T06:36:45.894Z,0.00
2018-12-26T06:37:45.889Z,0.00
2018-12-26T06:38:45.873Z,0.00
2018-12-26T06:39:45.897Z,0.00
2018-12-26T06:40:45.922Z,0.00
2018-12-26T06:41:45.835Z,0.00
2018-12-26T06:42:45.836Z,0.00
2018-12-26T06:43:45.825Z,0.00
2018-12-26T06:44:45.821Z,0.00
2018-12-26T06:45:45.828Z,0.00
2018-12-26T06:46:45.785Z,0.00
2018-12-26T06:47:45.774Z,0.00
2018-12-26T06:48:45.771Z,0.00
2018-12-26T06:49:45.770Z,0.00
2018-12-26T06:50:45.764Z,0.00
2018-12-26T06:51:45.772Z,0.00
2018-12-26T06:52:45.716Z,0.00
2018-12-26T06:53:45.727Z,0.00
2018-12-26T06:54:45.700Z,0.00
2018-12-26T06:55:45.687Z,0.00
2018-12-26T06:56:45.673Z,0.00
2018-12-26T06:57:45.695Z,0.00
2018-12-26T06:58:45.660Z,0.00
2018-12-26T06:59:45.647Z,0.00
2018-12-26T07:00:45.691Z,0.00
2018-12-26T07:01:45.650Z,0.00
2018-12-26T07:02:45.610Z,0.00
2018-12-26T07:03:46.713Z,0.00
2018-12-26T07:04:45.590Z,0.00
2018-12-26T07:05:45.582Z,0.00
2018-12-26T07:06:45.583Z,0.00
2018-12-26T07:07:45.569Z,0.00
2018-12-26T07:08:45.553Z,0.00
2018-12-26T07:09:45.583Z,0.00
2018-12-26T07:10:45.543Z,0.00
2018-12-26T07:11:45.526Z,0.00
2018-12-26T07:12:45.512Z,0.00
2018-12-26T07:13:45.518Z,0.00
2018-12-26T07:14:45.485Z,0.00
2018-12-26T07:15:45.518Z,0.00
2018-12-26T07:16:45.459Z,0.00
2018-12-26T07:17:45.451Z,0.00
2018-12-26T07:18:45.446Z,0.00
2018-12-26T07:19:45.433Z,0.00
2018-12-26T07:20:45.444Z,0.00
2018-12-26T07:21:45.453Z,0.00
2018-12-26T07:22:45.398Z,5.62
2018-12-26T07:23:45.411Z,5.62
2018-12-26T07:24:45.389Z,5.62
2018-12-26T07:25:45.381Z,5.62
2018-12-26T07:26:45.351Z,5.62
2018-12-26T07:27:45.412Z,5.62
2018-12-26T07:28:45.338Z,5.62
2018-12-26T07:29:45.340Z,5.62
2018-12-26T07:30:45.327Z,11.25
2018-12-26T07:31:45.305Z,11.25
2018-12-26T07:32:45.290Z,11.25
2018-12-26T07:33:45.370Z,11.25
2018-12-26T07:34:45.416Z,11.25
2018-12-26T07:35:45.322Z,16.88
2018-12-26T07:36:45.267Z,16.88
2018-12-26T07:37:45.299Z,16.88
2018-12-26T07:38:45.226Z,16.88
2018-12-26T07:39:45.247Z,16.88
2018-12-26T07:40:45.207Z,22.50
2018-12-26T07:41:45.196Z,22.50
2018-12-26T07:42:45.186Z,22.50
2018-12-26T07:43:45.178Z,22.50
2018-12-26T07:44:45.187Z,28.12
2018-12-26T07:45:45.188Z,28.12
2018-12-26T07:46:45.141Z,28.12
2018-12-26T07:47:45.133Z,33.75
2018-12-26T07:48:45.124Z,33.75
2018-12-26T07:49:45.130Z,33.75
2018-12-26T07:50:45.104Z,33.75
2018-12-26T07:51:45.134Z,39.38
2018-12-26T07:52:45.076Z,39.38
2018-12-26T07:53:45.064Z,39.38
2018-12-26T07:54:45.091Z,45.00
2018-12-26T07:55:45.045Z,45.00
2018-12-26T07:56:45.037Z,45.00
2018-12-26T07:57:45.071Z,50.62
2018-12-26T07:58:45.021Z,50.62
2018-12-26T07:59:45.027Z,50.62
2018-12-26T08:00:45.000Z,56.25
2018-12-26T08:01:44.988Z,56.25
2018-12-26T08:02:44.983Z,56.25
2018-12-26T08:03:45.038Z,61.88
2018-12-26T08:04:44.967Z,61.88
2018-12-26T08:05:44.946Z,67.50
2018-12-26T08:06:44.943Z,67.50
2018-12-26T08:07:44.934Z,67.50
2018-12-26T08:08:44.925Z,73.12
2018-12-26T08:09:44.925Z,73.12
2018-12-26T08:10:44.886Z,73.12
2018-12-26T08:11:44.896Z,78.75
2018-12-26T08:12:44.903Z,78.75
2018-12-26T08:13:44.859Z,78.75
2018-12-26T08:14:44.858Z,84.38
2018-12-26T08:15:44.871Z,84.38
2018-12-26T08:16:44.839Z,84.38
2018-12-26T08:17:44.811Z,90.00
2018-12-26T08:18:44.803Z,90.00
2018-12-26T08:19:44.801Z,95.62
2018-12-26T08:20:44.797Z,95.62
2018-12-26T08:21:44.816Z,95.62
2018-12-26T08:22:44.757Z,101.25
2018-12-26T08:23:44.773Z,101.25
2018-12-26T08:24:44.745Z,101.25
2018-12-26T08:25:44.762Z,106.88
2018-12-26T08:26:44.719Z,106.88
2018-12-26T08:27:44.739Z,106.88
2018-12-26T08:28:44.704Z,106.88
2018-12-26T08:29:44.719Z,112.50
2018-12-26T08:30:44.674Z,112.50
2018-12-26T08:31:44.680Z,112.50
2018-12-26T08:32:44.648Z,118.12
2018-12-26T08:33:44.679Z,118.12
2018-12-26T08:34:44.635Z,118.12
2018-12-26T08:35:44.618Z,118.12
2018-12-26T08:36:44.628Z,123.75
2018-12-26T08:37:44.615Z,123.75
2018-12-26T08:38:44.644Z,123.75
2018-12-26T08:39:44.644Z,123.75
2018-12-26T08:40:44.575Z,129.38
2018-12-26T08:41:44.563Z,129.38
2018-12-26T08:42:44.552Z,129.38
2018-12-26T08:43:44.537Z,129.38
2018-12-26T08:44:44.522Z,135.00
2018-12-26T08:45:44.545Z,135.00
2018-12-26T08:46:44.518Z,135.00
2018-12-26T08:47:44.496Z,135.00
2018-12-26T08:48:44.496Z,135.00
2018-12-26T08:49:44.475Z,140.62
2018-12-26T08:50:44.486Z,140.62
2018-12-26T08:51:44.493Z,140.62
2018-12-26T08:52:44.447Z,140.62
2018-12-26T08:53:44.439Z,140.62
2018-12-26T08:54:44.416Z,146.25
2018-12-26T08:55:44.418Z,146.25
2018-12-26T08:56:44.394Z,146.25
2018-12-26T08:57:44.447Z,146.25
2018-12-26T08:58:44.671Z,146.25
2018-12-26T08:59:44.363Z,151.88
2018-12-26T09:00:44.367Z,151.88
2018-12-26T09:01:44.338Z,151.88
2018-12-26T09:02:44.339Z,151.88
2018-12-26T09:03:44.374Z,157.50
2018-12-26T09:04:44.328Z,157.50
2018-12-26T09:05:44.323Z,157.50
2018-12-26T09:06:44.290Z,157.50
2018-12-26T09:07:44.281Z,157.50
2018-12-26T09:08:44.274Z,163.12
2018-12-26T09:09:44.317Z,157.50
2018-12-26T09:10:44.251Z,157.50
2018-12-26T09:11:44.242Z,163.12
2018-12-26T09:12:44.224Z,163.12
2018-12-26T09:13:44.231Z,163.12
2018-12-26T09:14:44.198Z,163.12
2018-12-26T09:15:44.277Z,163.12
2018-12-26T09:16:44.180Z,163.12
2018-12-26T09:17:44.176Z,163.12
2018-12-26T09:18:44.187Z,163.12
2018-12-26T09:19:44.228Z,168.75
2018-12-26T09:20:44.133Z,168.75
2018-12-26T09:21:44.160Z,168.75
2018-12-26T09:22:44.129Z,168.75
2018-12-26T09:23:44.107Z,168.75
2018-12-26T09:24:44.099Z,168.75
2018-12-26T09:25:44.102Z,168.75
2018-12-26T09:26:44.069Z,174.38
2018-12-26T09:27:44.087Z,174.38
2018-12-26T09:28:44.197Z,174.38
2018-12-26T09:29:44.033Z,174.38
2018-12-26T09:30:44.032Z,174.38
2018-12-26T09:31:44.021Z,174.38
2018-12-26T09:32:44.022Z,174.38
2018-12-26T09:33:44.035Z,174.38
2018-12-26T09:34:43.985Z,174.38
2018-12-26T09:35:43.975Z,174.38
2018-12-26T09:36:43.983Z,174.38
2018-12-26T09:37:44.010Z,174.38
2018-12-26T09:38:43.941Z,180.00
2018-12-26T09:39:43.969Z,180.00
2018-12-26T09:40:43.922Z,185.62
2018-12-26T09:41:43.939Z,180.00
2018-12-26T09:42:43.917Z,191.25
2018-12-26T09:43:43.891Z,191.25
2018-12-26T09:44:43.940Z,191.25
2018-12-26T09:45:43.914Z,185.62
2018-12-26T09:46:43.857Z,191.25
2018-12-26T09:47:43.854Z,196.88
2018-12-26T09:48:43.840Z,196.88
2018-12-26T09:49:43.826Z,202.50
2018-12-26T09:50:43.831Z,196.88
2018-12-26T09:51:43.839Z,202.50
2018-12-26T09:52:43.835Z,202.50
2018-12-26T09:53:43.775Z,202.50
2018-12-26T09:54:43.768Z,202.50
2018-12-26T09:55:43.761Z,202.50
2018-12-26T09:56:43.792Z,208.12
2018-12-26T09:57:43.778Z,208.12
2018-12-26T09:58:52.280Z,208.12
2018-12-26T09:59:44.780Z,208.12
2018-12-26T10:00:43.707Z,208.12
2018-12-26T10:01:43.715Z,208.12
2018-12-26T10:02:43.688Z,208.12
2018-12-26T10:03:43.716Z,208.12
2018-12-26T10:04:43.660Z,208.12
2018-12-26T10:05:43.726Z,208.12
2018-12-26T10:06:43.638Z,202.50
2018-12-26T10:07:43.634Z,202.50
2018-12-26T10:08:43.613Z,202.50
2018-12-26T10:09:43.659Z,202.50
2018-12-26T10:10:43.609Z,202.50
2018-12-26T10:11:43.583Z,202.50
2018-12-26T10:12:43.594Z,202.50
2018-12-26T10:13:43.555Z,202.50
2018-12-26T10:14:43.549Z,202.50
2018-12-26T10:15:43.574Z,202.50
2018-12-26T10:16:43.530Z,202.50
2018-12-26T10:17:43.517Z,202.50
2018-12-26T10:18:43.504Z,202.50
2018-12-26T10:19:43.503Z,202.50
2018-12-26T10:20:43.483Z,202.50
2018-12-26T10:21:43.505Z,202.50
2018-12-26T10:22:43.489Z,202.50
2018-12-26T10:23:43.451Z,202.50
2018-12-26T10:24:43.443Z,202.50
2018-12-26T10:25:43.431Z,202.50
2018-12-26T10:26:43.435Z,202.50
2018-12-26T10:27:43.444Z,202.50
2018-12-26T10:28:43.399Z,202.50
2018-12-26T10:29:43.402Z,202.50
2018-12-26T10:30:43.415Z,202.50
2018-12-26T10:31:43.386Z,202.50
2018-12-26T10:32:43.355Z,208.12
2018-12-26T10:33:43.396Z,202.50
2018-12-26T10:34:43.340Z,202.50
2018-12-26T10:35:43.343Z,202.50
2018-12-26T10:36:43.307Z,213.75
2018-12-26T10:37:43.301Z,202.50
2018-12-26T10:38:43.290Z,202.50
2018-12-26T10:39:43.327Z,202.50
2018-12-26T10:40:43.265Z,202.50
2018-12-26T10:41:43.259Z,202.50
2018-12-26T10:42:43.253Z,208.12
2018-12-26T10:43:43.253Z,208.12
2018-12-26T10:44:43.236Z,208.12
2018-12-26T10:45:43.261Z,208.12
2018-12-26T10:46:43.202Z,208.12
2018-12-26T10:47:43.205Z,208.12
2018-12-26T10:48:43.201Z,208.12
2018-12-26T10:49:43.190Z,208.12
2018-12-26T10:50:43.159Z,208.12
2018-12-26T10:51:43.179Z,208.12
2018-12-26T10:52:43.138Z,208.12
2018-12-26T10:53:43.130Z,208.12
2018-12-26T10:54:43.121Z,208.12
2018-12-26T10:55:43.100Z,208.12
2018-12-26T10:56:43.089Z,208.12
2018-12-26T10:57:43.136Z,208.12
2018-12-26T10:58:43.094Z,208.12
2018-12-26T10:59:43.063Z,208.12
2018-12-26T11:00:43.047Z,208.12
2018-12-26T11:01:43.036Z,208.12
2018-12-26T11:02:43.037Z,208.12
2018-12-26T11:03:43.070Z,208.12
2018-12-26T11:04:43.023Z,208.12
2018-12-26T11:05:42.994Z,208.12
2018-12-26T11:06:42.992Z,208.12
2018-12-26T11:07:42.988Z,208.12
2018-12-26T11:08:42.999Z,208.12
2018-12-26T11:09:43.021Z,208.12
2018-12-26T11:10:42.950Z,208.12
2018-12-26T11:11:43.009Z,208.12
2018-12-26T11:12:42.928Z,208.12
2018-12-26T11:13:42.909Z,208.12
2018-12-26T11:14:42.894Z,208.12
2018-12-26T11:15:42.923Z,213.75
2018-12-26T11:16:42.892Z,213.75
2018-12-26T11:17:42.868Z,213.75
2018-12-26T11:18:42.851Z,213.75
2018-12-26T11:19:42.842Z,213.75
2018-12-26T11:20:42.859Z,219.38
2018-12-26T11:21:42.896Z,219.38
2018-12-26T11:22:42.814Z,219.38
2018-12-26T11:23:42.811Z,225.00
2018-12-26T11:24:42.823Z,225.00
2018-12-26T11:25:42.787Z,225.00
2018-12-26T11:26:42.770Z,225.00
2018-12-26T11:27:42.795Z,225.00
2018-12-26T11:28:42.741Z,225.00
2018-12-26T11:29:42.746Z,225.00
2018-12-26T11:30:42.727Z,230.62
2018-12-26T11:31:42.726Z,230.62
2018-12-26T11:32:42.706Z,230.62
2018-12-26T11:33:42.733Z,230.62
2018-12-26T11:34:42.696Z,230.62
2018-12-26T11:35:42.667Z,236.25
2018-12-26T11:36:42.660Z,236.25
2018-12-26T11:37:42.658Z,236.25
2018-12-26T11:38:42.648Z,236.25
2018-12-26T11:39:42.654Z,236.25
2018-12-26T11:40:42.611Z,241.88
2018-12-26T11:41:42.618Z,241.88
2018-12-26T11:42:42.596Z,241.88
2018-12-26T11:43:42.599Z,241.88
2018-12-26T11:44:42.574Z,241.88
2018-12-26T11:45:42.611Z,241.88
2018-12-26T11:46:42.549Z,241.88
2018-12-26T11:47:42.538Z,241.88
2018-12-26T11:48:42.536Z,247.50
2018-12-26T11:49:42.516Z,247.50
2018-12-26T11:50:42.504Z,247.50
2018-12-26T11:51:51.166Z,247.50
2018-12-26T11:52:42.478Z,247.50
2018-12-26T11:53:42.468Z,247.50
2018-12-26T11:54:42.457Z,247.50
2018-12-26T11:55:42.448Z,247.50
2018-12-26T11:56:42.437Z,253.12
2018-12-26T11:57:42.464Z,253.12
2018-12-26T11:58:42.440Z,253.12
2018-12-26T11:59:42.409Z,253.12
2018-12-26T12:00:42.396Z,253.12
2018-12-26T12:01:42.487Z,253.12
2018-12-26T12:02:42.386Z,258.75
2018-12-26T12:03:42.412Z,258.75
2018-12-26T12:04:42.347Z,258.75
2018-12-26T12:05:42.345Z,258.75
2018-12-26T12:06:42.336Z,264.38
2018-12-26T12:07:42.324Z,264.38
2018-12-26T12:08:42.308Z,270.00
2018-12-26T12:09:42.363Z,270.00
2018-12-26T12:10:42.281Z,270.00
2018-12-26T12:11:42.287Z,270.00
2018-12-26T12:12:42.288Z,270.00
2018-12-26T12:13:42.248Z,275.62
2018-12-26T12:14:42.247Z,275.62
2018-12-26T12:15:42.273Z,275.62
2018-12-26T12:16:42.219Z,275.62
2018-12-26T12:17:42.266Z,275.62
2018-12-26T12:18:42.216Z,281.25
2018-12-26T12:19:42.197Z,281.25
2018-12-26T12:20:42.198Z,281.25
2018-12-26T12:21:42.207Z,281.25
2018-12-26T12:22:42.149Z,281.25
2018-12-26T12:23:42.141Z,275.62
2018-12-26T12:24:42.158Z,275.62
2018-12-26T12:25:42.115Z,275.62
2018-12-26T12:26:42.104Z,275.62
2018-12-26T12:27:42.136Z,275.62
2018-12-26T12:28:42.087Z,275.62
2018-12-26T12:29:42.073Z,275.62
2018-12-26T12:30:42.058Z,275.62
2018-12-26T12:31:42.053Z,275.62
2018-12-26T12:32:42.046Z,275.62
2018-12-26T12:33:42.067Z,275.62
2018-12-26T12:34:42.025Z,270.00
2018-12-26T12:35:42.007Z,270.00
2018-12-26T12:36:42.001Z,270.00
2018-12-26T12:37:42.003Z,270.00
2018-12-26T12:38:42.011Z,270.00
2018-12-26T12:39:42.012Z,264.38
2018-12-26T12:40:41.955Z,264.38
2018-12-26T12:41:41.940Z,270.00
2018-12-26T12:42:41.960Z,270.00
2018-12-26T12:43:41.960Z,270.00
2018-12-26T12:44:41.912Z,264.38
2018-12-26T12:45:41.936Z,264.38
2018-12-26T12:46:41.921Z,264.38
2018-12-26T12:47:41.904Z,264.38
2018-12-26T12:48:41.863Z,264.38
2018-12-26T12:49:41.866Z,264.38
2018-12-26T12:50:41.840Z,264.38
2018-12-26T12:51:41.867Z,264.38
2018-12-26T12:52:41.826Z,270.00
2018-12-26T12:53:41.806Z,270.00
2018-12-26T12:54:41.813Z,270.00
2018-12-26T12:55:42.019Z,270.00
2018-12-26T12:56:41.785Z,270.00
2018-12-26T12:57:41.799Z,275.62
2018-12-26T12:58:41.776Z,275.62